sensor_id;sensor_type;location;lat;lon;timestamp;P1;durP1;ratioP1;P2;durP2;ratioP2
39322;SDS011;25036;53.638;10.134;2023-04-25T00:00:32;3.13;;;1.77;;
39322;SDS011;25036;53.638;10.134;2023-04-25T00:01:32;3.57;;;1.80;;
39322;SDS011;25036;53.638;10.134;2023-04-25T00:02:35;2.90;;;1.80;;
39322;SDS011;25036;53.638;10.134;2023-04-25T00:03:35;2.50;;;1.67;;
39322;SDS011;25036;53.638;10.134;2023-04-25T00:04:36;4.25;;;1.50;;
39322;SDS011;25036;53.638;10.134;2023-04-25T00:05:37;3.13;;;1.50;;
39322;SDS011;25036;53.638;10.134;2023-04-25T00:06:38;3.45;;;2.13;;
39322;SDS011;25036;53.638;10.134;2023-04-25T00:07:39;3.45;;;1.75;;
39322;SDS011;25036;53.638;10.134;2023-04-25T00:08:41;4.05;;;1.60;;
39322;SDS011;25036;53.638;10.134;2023-04-25T00:09:42;2.22;;;1.50;;
39322;SDS011;25036;53.638;10.134;2023-04-25T00:10:43;3.95;;;1.80;;
39322;SDS011;25036;53.638;10.134;2023-04-25T00:11:43;3.23;;;1.63;;
39322;SDS011;25036;53.638;10.134;2023-04-25T00:12:43;3.55;;;1.50;;
39322;SDS011;25036;53.638;10.134;2023-04-25T00:13:44;3.28;;;1.60;;
39322;SDS011;25036;53.638;10.134;2023-04-25T00:14:44;3.00;;;1.60;;
39322;SDS011;25036;53.638;10.134;2023-04-25T00:15:45;4.10;;;1.70;;
39322;SDS011;25036;53.638;10.134;2023-04-25T00:16:46;2.83;;;1.70;;
39322;SDS011;25036;53.638;10.134;2023-04-25T00:17:46;4.27;;;1.53;;
39322;SDS011;25036;53.638;10.134;2023-04-25T00:18:46;4.88;;;1.80;;
39322;SDS011;25036;53.638;10.134;2023-04-25T00:19:51;6.82;;;2.10;;
39322;SDS011;25036;53.638;10.134;2023-04-25T00:20:51;5.03;;;1.90;;
39322;SDS011;25036;53.638;10.134;2023-04-25T00:21:51;5.83;;;2.43;;
39322;SDS011;25036;53.638;10.134;2023-04-25T00:22:51;4.47;;;1.97;;
39322;SDS011;25036;53.638;10.134;2023-04-25T00:23:53;5.30;;;2.10;;
39322;SDS011;25036;53.638;10.134;2023-04-25T00:24:53;7.82;;;2.60;;
39322;SDS011;25036;53.638;10.134;2023-04-25T00:25:56;8.63;;;2.80;;
39322;SDS011;25036;53.638;10.134;2023-04-25T00:26:56;6.60;;;2.03;;
39322;SDS011;25036;53.638;10.134;2023-04-25T00:27:56;9.13;;;2.57;;
39322;SDS011;25036;53.638;10.134;2023-04-25T00:28:56;8.80;;;2.45;;
39322;SDS011;25036;53.638;10.134;2023-04-25T00:29:57;8.00;;;2.37;;
39322;SDS011;25036;53.638;10.134;2023-04-25T00:30:57;9.33;;;2.60;;
39322;SDS011;25036;53.638;10.134;2023-04-25T00:31:57;7.90;;;2.87;;
39322;SDS011;25036;53.638;10.134;2023-04-25T00:32:57;8.65;;;2.35;;
39322;SDS011;25036;53.638;10.134;2023-04-25T00:33:57;9.10;;;2.37;;
39322;SDS011;25036;53.638;10.134;2023-04-25T00:34:57;9.15;;;2.88;;
39322;SDS011;25036;53.638;10.134;2023-04-25T00:35:58;8.82;;;2.28;;
39322;SDS011;25036;53.638;10.134;2023-04-25T00:36:58;6.82;;;2.40;;
39322;SDS011;25036;53.638;10.134;2023-04-25T00:38:01;11.05;;;2.22;;
39322;SDS011;25036;53.638;10.134;2023-04-25T00:39:02;12.63;;;2.67;;
39322;SDS011;25036;53.638;10.134;2023-04-25T00:40:04;11.63;;;2.55;;
39322;SDS011;25036;53.638;10.134;2023-04-25T00:41:06;9.27;;;2.30;;
39322;SDS011;25036;53.638;10.134;2023-04-25T00:42:07;10.30;;;2.80;;
39322;SDS011;25036;53.638;10.134;2023-04-25T00:43:07;10.63;;;2.60;;
39322;SDS011;25036;53.638;10.134;2023-04-25T00:44:08;10.17;;;2.53;;
39322;SDS011;25036;53.638;10.134;2023-04-25T00:45:12;11.25;;;3.20;;
39322;SDS011;25036;53.638;10.134;2023-04-25T00:46:13;11.73;;;3.00;;
39322;SDS011;25036;53.638;10.134;2023-04-25T00:47:13;9.95;;;2.90;;
39322;SDS011;25036;53.638;10.134;2023-04-25T00:48:14;8.00;;;2.42;;
39322;SDS011;25036;53.638;10.134;2023-04-25T00:49:15;8.73;;;2.10;;
39322;SDS011;25036;53.638;10.134;2023-04-25T00:50:16;14.13;;;2.95;;
39322;SDS011;25036;53.638;10.134;2023-04-25T00:51:19;9.40;;;2.77;;
39322;SDS011;25036;53.638;10.134;2023-04-25T00:52:19;8.73;;;2.70;;
39322;SDS011;25036;53.638;10.134;2023-04-25T00:53:20;8.50;;;2.25;;
39322;SDS011;25036;53.638;10.134;2023-04-25T00:54:21;11.25;;;2.80;;
39322;SDS011;25036;53.638;10.134;2023-04-25T00:55:21;8.48;;;2.72;;
39322;SDS011;25036;53.638;10.134;2023-04-25T00:56:21;14.55;;;2.70;;
39322;SDS011;25036;53.638;10.134;2023-04-25T00:57:22;12.77;;;2.75;;
39322;SDS011;25036;53.638;10.134;2023-04-25T00:58:22;11.43;;;3.07;;
39322;SDS011;25036;53.638;10.134;2023-04-25T00:59:22;8.53;;;2.47;;
39322;SDS011;25036;53.638;10.134;2023-04-25T01:00:22;11.95;;;2.90;;
39322;SDS011;25036;53.638;10.134;2023-04-25T01:01:23;7.43;;;2.33;;
39322;SDS011;25036;53.638;10.134;2023-04-25T01:02:23;10.93;;;3.00;;
39322;SDS011;25036;53.638;10.134;2023-04-25T01:03:23;7.57;;;2.77;;
39322;SDS011;25036;53.638;10.134;2023-04-25T01:04:23;9.65;;;2.33;;
39322;SDS011;25036;53.638;10.134;2023-04-25T01:05:24;9.83;;;2.73;;
39322;SDS011;25036;53.638;10.134;2023-04-25T01:06:24;12.13;;;2.80;;
39322;SDS011;25036;53.638;10.134;2023-04-25T01:07:24;12.48;;;2.90;;
39322;SDS011;25036;53.638;10.134;2023-04-25T01:08:25;11.95;;;2.90;;
39322;SDS011;25036;53.638;10.134;2023-04-25T01:09:25;9.30;;;2.65;;
39322;SDS011;25036;53.638;10.134;2023-04-25T01:10:25;11.55;;;2.97;;
39322;SDS011;25036;53.638;10.134;2023-04-25T01:11:25;12.23;;;2.50;;
39322;SDS011;25036;53.638;10.134;2023-04-25T01:12:25;12.98;;;3.22;;
39322;SDS011;25036;53.638;10.134;2023-04-25T01:13:26;8.23;;;2.60;;
39322;SDS011;25036;53.638;10.134;2023-04-25T01:14:26;10.70;;;3.10;;
39322;SDS011;25036;53.638;10.134;2023-04-25T01:15:26;9.55;;;2.65;;
39322;SDS011;25036;53.638;10.134;2023-04-25T01:16:26;12.65;;;3.00;;
39322;SDS011;25036;53.638;10.134;2023-04-25T01:17:27;12.70;;;3.03;;
39322;SDS011;25036;53.638;10.134;2023-04-25T01:18:27;10.40;;;3.05;;
39322;SDS011;25036;53.638;10.134;2023-04-25T01:19:28;8.80;;;2.85;;
39322;SDS011;25036;53.638;10.134;2023-04-25T01:20:28;11.07;;;2.88;;
39322;SDS011;25036;53.638;10.134;2023-04-25T01:21:29;12.48;;;2.80;;
39322;SDS011;25036;53.638;10.134;2023-04-25T01:22:31;11.23;;;3.42;;
39322;SDS011;25036;53.638;10.134;2023-04-25T01:23:31;12.90;;;3.33;;
39322;SDS011;25036;53.638;10.134;2023-04-25T01:24:33;14.40;;;2.70;;
39322;SDS011;25036;53.638;10.134;2023-04-25T01:25:33;8.90;;;2.97;;
39322;SDS011;25036;53.638;10.134;2023-04-25T01:26:33;14.98;;;3.40;;
39322;SDS011;25036;53.638;10.134;2023-04-25T01:27:35;13.63;;;3.53;;
39322;SDS011;25036;53.638;10.134;2023-04-25T01:28:35;10.07;;;3.08;;
39322;SDS011;25036;53.638;10.134;2023-04-25T01:29:36;10.23;;;2.60;;
39322;SDS011;25036;53.638;10.134;2023-04-25T01:30:36;15.57;;;3.65;;
39322;SDS011;25036;53.638;10.134;2023-04-25T01:31:37;12.68;;;3.20;;
39322;SDS011;25036;53.638;10.134;2023-04-25T01:32:37;10.43;;;3.22;;
39322;SDS011;25036;53.638;10.134;2023-04-25T01:33:38;13.98;;;3.88;;
39322;SDS011;25036;53.638;10.134;2023-04-25T01:34:38;13.70;;;2.72;;
39322;SDS011;25036;53.638;10.134;2023-04-25T01:35:38;10.77;;;3.08;;
39322;SDS011;25036;53.638;10.134;2023-04-25T01:36:40;11.85;;;3.42;;
39322;SDS011;25036;53.638;10.134;2023-04-25T01:37:41;8.93;;;2.80;;
39322;SDS011;25036;53.638;10.134;2023-04-25T01:38:41;12.50;;;3.35;;
39322;SDS011;25036;53.638;10.134;2023-04-25T01:39:41;7.63;;;2.83;;
39322;SDS011;25036;53.638;10.134;2023-04-25T01:40:42;17.52;;;3.78;;
39322;SDS011;25036;53.638;10.134;2023-04-25T01:41:45;13.95;;;3.28;;
39322;SDS011;25036;53.638;10.134;2023-04-25T01:42:45;15.73;;;3.67;;
39322;SDS011;25036;53.638;10.134;2023-04-25T01:43:45;10.23;;;3.20;;
39322;SDS011;25036;53.638;10.134;2023-04-25T01:44:46;10.02;;;2.90;;
39322;SDS011;25036;53.638;10.134;2023-04-25T01:45:46;10.85;;;2.90;;
39322;SDS011;25036;53.638;10.134;2023-04-25T01:46:46;12.98;;;3.35;;
39322;SDS011;25036;53.638;10.134;2023-04-25T01:47:46;11.70;;;3.33;;
39322;SDS011;25036;53.638;10.134;2023-04-25T01:48:50;14.35;;;3.45;;
39322;SDS011;25036;53.638;10.134;2023-04-25T01:49:50;12.73;;;3.63;;
39322;SDS011;25036;53.638;10.134;2023-04-25T01:50:50;15.43;;;4.00;;
39322;SDS011;25036;53.638;10.134;2023-04-25T01:51:50;15.35;;;3.78;;
39322;SDS011;25036;53.638;10.134;2023-04-25T01:52:51;15.88;;;3.45;;
39322;SDS011;25036;53.638;10.134;2023-04-25T01:53:51;13.87;;;3.40;;
39322;SDS011;25036;53.638;10.134;2023-04-25T01:54:51;11.52;;;3.35;;
39322;SDS011;25036;53.638;10.134;2023-04-25T01:55:52;12.38;;;3.20;;
39322;SDS011;25036;53.638;10.134;2023-04-25T01:56:52;14.50;;;3.57;;
39322;SDS011;25036;53.638;10.134;2023-04-25T01:57:52;13.67;;;3.40;;
39322;SDS011;25036;53.638;10.134;2023-04-25T01:58:53;11.13;;;3.40;;
39322;SDS011;25036;53.638;10.134;2023-04-25T02:00:03;9.38;;;3.53;;
39322;SDS011;25036;53.638;10.134;2023-04-25T02:01:04;12.23;;;3.30;;
39322;SDS011;25036;53.638;10.134;2023-04-25T02:02:04;12.70;;;3.10;;
39322;SDS011;25036;53.638;10.134;2023-04-25T02:03:05;13.32;;;3.17;;
39322;SDS011;25036;53.638;10.134;2023-04-25T02:04:05;15.55;;;3.53;;
39322;SDS011;25036;53.638;10.134;2023-04-25T02:05:05;10.43;;;3.00;;
39322;SDS011;25036;53.638;10.134;2023-04-25T02:06:05;12.82;;;3.88;;
39322;SDS011;25036;53.638;10.134;2023-04-25T02:07:06;14.40;;;3.80;;
39322;SDS011;25036;53.638;10.134;2023-04-25T02:08:06;13.40;;;3.80;;
39322;SDS011;25036;53.638;10.134;2023-04-25T02:09:06;14.65;;;3.40;;
39322;SDS011;25036;53.638;10.134;2023-04-25T02:10:07;11.40;;;3.13;;
39322;SDS011;25036;53.638;10.134;2023-04-25T02:11:07;10.15;;;3.40;;
39322;SDS011;25036;53.638;10.134;2023-04-25T02:12:08;14.77;;;3.27;;
39322;SDS011;25036;53.638;10.134;2023-04-25T02:13:08;13.52;;;2.80;;
39322;SDS011;25036;53.638;10.134;2023-04-25T02:14:09;13.32;;;3.40;;
39322;SDS011;25036;53.638;10.134;2023-04-25T02:15:09;14.40;;;3.30;;
39322;SDS011;25036;53.638;10.134;2023-04-25T02:16:09;10.93;;;3.10;;
39322;SDS011;25036;53.638;10.134;2023-04-25T02:17:09;10.30;;;3.10;;
39322;SDS011;25036;53.638;10.134;2023-04-25T02:18:09;9.00;;;3.20;;
39322;SDS011;25036;53.638;10.134;2023-04-25T02:19:11;13.73;;;2.88;;
39322;SDS011;25036;53.638;10.134;2023-04-25T02:20:11;13.03;;;3.30;;
39322;SDS011;25036;53.638;10.134;2023-04-25T02:21:11;12.75;;;3.40;;
39322;SDS011;25036;53.638;10.134;2023-04-25T02:22:11;11.38;;;3.28;;
39322;SDS011;25036;53.638;10.134;2023-04-25T02:23:11;6.60;;;2.40;;
39322;SDS011;25036;53.638;10.134;2023-04-25T02:24:11;9.97;;;2.80;;
39322;SDS011;25036;53.638;10.134;2023-04-25T02:25:12;12.52;;;3.30;;
39322;SDS011;25036;53.638;10.134;2023-04-25T02:26:12;12.97;;;3.30;;
39322;SDS011;25036;53.638;10.134;2023-04-25T02:27:13;11.85;;;2.90;;
39322;SDS011;25036;53.638;10.134;2023-04-25T02:28:13;12.47;;;2.87;;
39322;SDS011;25036;53.638;10.134;2023-04-25T02:29:13;9.63;;;3.10;;
39322;SDS011;25036;53.638;10.134;2023-04-25T02:30:15;9.82;;;2.97;;
39322;SDS011;25036;53.638;10.134;2023-04-25T02:31:15;12.25;;;3.08;;
39322;SDS011;25036;53.638;10.134;2023-04-25T02:32:15;11.65;;;3.40;;
39322;SDS011;25036;53.638;10.134;2023-04-25T02:33:16;12.90;;;3.23;;
39322;SDS011;25036;53.638;10.134;2023-04-25T02:34:16;10.70;;;3.45;;
39322;SDS011;25036;53.638;10.134;2023-04-25T02:35:17;10.50;;;3.07;;
39322;SDS011;25036;53.638;10.134;2023-04-25T02:36:17;11.45;;;3.25;;
39322;SDS011;25036;53.638;10.134;2023-04-25T02:37:17;11.70;;;3.03;;
39322;SDS011;25036;53.638;10.134;2023-04-25T02:38:17;17.97;;;3.90;;
39322;SDS011;25036;53.638;10.134;2023-04-25T02:39:17;13.50;;;3.50;;
39322;SDS011;25036;53.638;10.134;2023-04-25T02:40:17;9.43;;;2.92;;
39322;SDS011;25036;53.638;10.134;2023-04-25T02:41:18;10.98;;;3.35;;
39322;SDS011;25036;53.638;10.134;2023-04-25T02:42:18;8.40;;;3.13;;
39322;SDS011;25036;53.638;10.134;2023-04-25T02:43:18;13.43;;;3.00;;
39322;SDS011;25036;53.638;10.134;2023-04-25T02:44:18;11.60;;;3.50;;
39322;SDS011;25036;53.638;10.134;2023-04-25T02:45:18;11.35;;;2.97;;
39322;SDS011;25036;53.638;10.134;2023-04-25T02:46:18;12.87;;;3.53;;
39322;SDS011;25036;53.638;10.134;2023-04-25T02:47:19;10.27;;;3.00;;
39322;SDS011;25036;53.638;10.134;2023-04-25T02:48:19;9.18;;;2.53;;
39322;SDS011;25036;53.638;10.134;2023-04-25T02:49:19;11.05;;;2.78;;
39322;SDS011;25036;53.638;10.134;2023-04-25T02:50:19;8.83;;;2.70;;
39322;SDS011;25036;53.638;10.134;2023-04-25T02:51:20;11.82;;;2.97;;
39322;SDS011;25036;53.638;10.134;2023-04-25T02:52:20;11.80;;;2.85;;
39322;SDS011;25036;53.638;10.134;2023-04-25T02:53:21;15.07;;;3.72;;
39322;SDS011;25036;53.638;10.134;2023-04-25T02:54:21;8.13;;;3.23;;
39322;SDS011;25036;53.638;10.134;2023-04-25T02:55:21;8.80;;;2.90;;
39322;SDS011;25036;53.638;10.134;2023-04-25T02:56:22;14.18;;;3.63;;
39322;SDS011;25036;53.638;10.134;2023-04-25T02:57:22;10.87;;;3.00;;
39322;SDS011;25036;53.638;10.134;2023-04-25T02:58:22;9.55;;;2.72;;
39322;SDS011;25036;53.638;10.134;2023-04-25T02:59:22;9.10;;;3.00;;
39322;SDS011;25036;53.638;10.134;2023-04-25T03:00:22;10.50;;;2.43;;
39322;SDS011;25036;53.638;10.134;2023-04-25T03:01:23;15.85;;;3.63;;
39322;SDS011;25036;53.638;10.134;2023-04-25T03:02:23;9.10;;;3.03;;
39322;SDS011;25036;53.638;10.134;2023-04-25T03:03:23;12.37;;;3.13;;
39322;SDS011;25036;53.638;10.134;2023-04-25T03:04:23;12.23;;;3.08;;
39322;SDS011;25036;53.638;10.134;2023-04-25T03:05:26;11.52;;;3.22;;
39322;SDS011;25036;53.638;10.134;2023-04-25T03:06:26;11.73;;;2.97;;
39322;SDS011;25036;53.638;10.134;2023-04-25T03:07:27;9.60;;;2.63;;
39322;SDS011;25036;53.638;10.134;2023-04-25T03:08:27;9.30;;;2.77;;
39322;SDS011;25036;53.638;10.134;2023-04-25T03:09:32;11.73;;;3.55;;
39322;SDS011;25036;53.638;10.134;2023-04-25T03:10:32;10.98;;;3.35;;
39322;SDS011;25036;53.638;10.134;2023-04-25T03:11:32;9.93;;;2.65;;
39322;SDS011;25036;53.638;10.134;2023-04-25T03:12:33;8.38;;;3.22;;
39322;SDS011;25036;53.638;10.134;2023-04-25T03:13:33;8.97;;;2.87;;
39322;SDS011;25036;53.638;10.134;2023-04-25T03:14:33;13.70;;;3.55;;
39322;SDS011;25036;53.638;10.134;2023-04-25T03:15:33;11.17;;;3.13;;
39322;SDS011;25036;53.638;10.134;2023-04-25T03:16:33;12.25;;;2.75;;
39322;SDS011;25036;53.638;10.134;2023-04-25T03:17:33;11.52;;;2.63;;
39322;SDS011;25036;53.638;10.134;2023-04-25T03:18:34;12.07;;;3.15;;
39322;SDS011;25036;53.638;10.134;2023-04-25T03:19:34;10.37;;;3.20;;
39322;SDS011;25036;53.638;10.134;2023-04-25T03:20:34;11.13;;;3.10;;
39322;SDS011;25036;53.638;10.134;2023-04-25T03:21:35;11.05;;;3.45;;
39322;SDS011;25036;53.638;10.134;2023-04-25T03:22:35;11.02;;;3.60;;
39322;SDS011;25036;53.638;10.134;2023-04-25T03:23:35;9.77;;;2.33;;
39322;SDS011;25036;53.638;10.134;2023-04-25T03:24:35;10.63;;;3.03;;
39322;SDS011;25036;53.638;10.134;2023-04-25T03:25:36;12.30;;;3.00;;
39322;SDS011;25036;53.638;10.134;2023-04-25T03:26:36;13.57;;;3.10;;
39322;SDS011;25036;53.638;10.134;2023-04-25T03:27:36;7.87;;;2.53;;
39322;SDS011;25036;53.638;10.134;2023-04-25T03:28:37;11.50;;;3.20;;
39322;SDS011;25036;53.638;10.134;2023-04-25T03:29:37;8.07;;;2.50;;
39322;SDS011;25036;53.638;10.134;2023-04-25T03:30:37;8.97;;;3.00;;
39322;SDS011;25036;53.638;10.134;2023-04-25T03:31:37;10.02;;;3.33;;
39322;SDS011;25036;53.638;10.134;2023-04-25T03:32:37;12.87;;;3.30;;
39322;SDS011;25036;53.638;10.134;2023-04-25T03:33:37;12.65;;;3.13;;
39322;SDS011;25036;53.638;10.134;2023-04-25T03:34:37;8.27;;;2.83;;
39322;SDS011;25036;53.638;10.134;2023-04-25T03:35:38;10.73;;;2.63;;
39322;SDS011;25036;53.638;10.134;2023-04-25T03:36:38;9.00;;;2.53;;
39322;SDS011;25036;53.638;10.134;2023-04-25T03:37:38;11.93;;;2.92;;
39322;SDS011;25036;53.638;10.134;2023-04-25T03:38:40;10.13;;;3.45;;
39322;SDS011;25036;53.638;10.134;2023-04-25T03:39:41;10.63;;;3.10;;
39322;SDS011;25036;53.638;10.134;2023-04-25T03:40:41;11.02;;;3.15;;
39322;SDS011;25036;53.638;10.134;2023-04-25T03:41:41;10.97;;;3.60;;
39322;SDS011;25036;53.638;10.134;2023-04-25T03:42:42;15.23;;;3.33;;
39322;SDS011;25036;53.638;10.134;2023-04-25T03:43:42;7.32;;;2.58;;
39322;SDS011;25036;53.638;10.134;2023-04-25T03:44:42;10.60;;;3.00;;
39322;SDS011;25036;53.638;10.134;2023-04-25T03:45:42;7.87;;;3.23;;
39322;SDS011;25036;53.638;10.134;2023-04-25T03:46:42;10.27;;;2.87;;
39322;SDS011;25036;53.638;10.134;2023-04-25T03:47:42;10.23;;;2.77;;
39322;SDS011;25036;53.638;10.134;2023-04-25T03:48:42;9.50;;;2.70;;
39322;SDS011;25036;53.638;10.134;2023-04-25T03:49:43;11.97;;;3.57;;
39322;SDS011;25036;53.638;10.134;2023-04-25T03:50:43;10.13;;;2.92;;
39322;SDS011;25036;53.638;10.134;2023-04-25T03:51:43;8.97;;;3.03;;
39322;SDS011;25036;53.638;10.134;2023-04-25T03:52:43;11.23;;;2.67;;
39322;SDS011;25036;53.638;10.134;2023-04-25T03:53:43;14.32;;;3.33;;
39322;SDS011;25036;53.638;10.134;2023-04-25T03:54:43;7.50;;;2.70;;
39322;SDS011;25036;53.638;10.134;2023-04-25T03:55:43;10.43;;;3.07;;
39322;SDS011;25036;53.638;10.134;2023-04-25T03:56:44;11.30;;;2.65;;
39322;SDS011;25036;53.638;10.134;2023-04-25T03:57:44;12.02;;;3.35;;
39322;SDS011;25036;53.638;10.134;2023-04-25T03:58:44;8.20;;;2.87;;
39322;SDS011;25036;53.638;10.134;2023-04-25T03:59:44;11.48;;;3.42;;
39322;SDS011;25036;53.638;10.134;2023-04-25T04:00:44;10.88;;;2.83;;
39322;SDS011;25036;53.638;10.134;2023-04-25T04:01:45;10.13;;;3.25;;
39322;SDS011;25036;53.638;10.134;2023-04-25T04:02:45;12.70;;;3.03;;
39322;SDS011;25036;53.638;10.134;2023-04-25T04:03:45;8.38;;;2.70;;
39322;SDS011;25036;53.638;10.134;2023-04-25T04:04:45;12.47;;;3.30;;
39322;SDS011;25036;53.638;10.134;2023-04-25T04:05:45;8.90;;;3.00;;
39322;SDS011;25036;53.638;10.134;2023-04-25T04:06:46;7.15;;;2.80;;
39322;SDS011;25036;53.638;10.134;2023-04-25T04:07:46;7.67;;;2.73;;
39322;SDS011;25036;53.638;10.134;2023-04-25T04:08:46;12.07;;;2.70;;
39322;SDS011;25036;53.638;10.134;2023-04-25T04:09:46;7.72;;;2.58;;
39322;SDS011;25036;53.638;10.134;2023-04-25T04:10:46;12.67;;;2.77;;
39322;SDS011;25036;53.638;10.134;2023-04-25T04:11:47;10.00;;;2.90;;
39322;SDS011;25036;53.638;10.134;2023-04-25T04:12:47;11.77;;;3.00;;
39322;SDS011;25036;53.638;10.134;2023-04-25T04:13:47;11.53;;;3.13;;
39322;SDS011;25036;53.638;10.134;2023-04-25T04:14:47;8.17;;;2.80;;
39322;SDS011;25036;53.638;10.134;2023-04-25T04:15:47;10.03;;;2.90;;
39322;SDS011;25036;53.638;10.134;2023-04-25T04:16:47;8.47;;;2.67;;
39322;SDS011;25036;53.638;10.134;2023-04-25T04:17:48;9.17;;;2.40;;
39322;SDS011;25036;53.638;10.134;2023-04-25T04:18:48;12.48;;;3.45;;
39322;SDS011;25036;53.638;10.134;2023-04-25T04:19:48;13.20;;;2.73;;
39322;SDS011;25036;53.638;10.134;2023-04-25T04:20:48;12.87;;;3.20;;
39322;SDS011;25036;53.638;10.134;2023-04-25T04:21:48;10.73;;;2.80;;
39322;SDS011;25036;53.638;10.134;2023-04-25T04:22:48;12.00;;;3.10;;
39322;SDS011;25036;53.638;10.134;2023-04-25T04:23:49;11.82;;;3.60;;
39322;SDS011;25036;53.638;10.134;2023-04-25T04:24:49;9.27;;;2.72;;
39322;SDS011;25036;53.638;10.134;2023-04-25T04:25:49;10.60;;;3.15;;
39322;SDS011;25036;53.638;10.134;2023-04-25T04:26:50;11.23;;;2.80;;
39322;SDS011;25036;53.638;10.134;2023-04-25T04:27:50;6.97;;;2.28;;
39322;SDS011;25036;53.638;10.134;2023-04-25T04:28:54;9.85;;;2.75;;
39322;SDS011;25036;53.638;10.134;2023-04-25T04:29:55;11.40;;;2.85;;
39322;SDS011;25036;53.638;10.134;2023-04-25T04:30:56;10.02;;;2.83;;
39322;SDS011;25036;53.638;10.134;2023-04-25T04:31:56;9.03;;;3.07;;
39322;SDS011;25036;53.638;10.134;2023-04-25T04:32:56;9.23;;;2.55;;
39322;SDS011;25036;53.638;10.134;2023-04-25T04:33:56;9.88;;;2.53;;
39322;SDS011;25036;53.638;10.134;2023-04-25T04:34:56;10.63;;;2.50;;
39322;SDS011;25036;53.638;10.134;2023-04-25T04:35:57;9.70;;;2.80;;
39322;SDS011;25036;53.638;10.134;2023-04-25T04:36:57;11.25;;;3.20;;
39322;SDS011;25036;53.638;10.134;2023-04-25T04:37:57;10.33;;;2.87;;
39322;SDS011;25036;53.638;10.134;2023-04-25T04:38:57;7.87;;;2.40;;
39322;SDS011;25036;53.638;10.134;2023-04-25T04:39:57;9.37;;;2.73;;
39322;SDS011;25036;53.638;10.134;2023-04-25T04:40:57;8.77;;;2.65;;
39322;SDS011;25036;53.638;10.134;2023-04-25T04:41:58;12.93;;;3.20;;
39322;SDS011;25036;53.638;10.134;2023-04-25T04:42:58;10.37;;;2.77;;
39322;SDS011;25036;53.638;10.134;2023-04-25T04:43:58;9.82;;;2.85;;
39322;SDS011;25036;53.638;10.134;2023-04-25T04:45:01;7.63;;;2.65;;
39322;SDS011;25036;53.638;10.134;2023-04-25T04:46:01;7.07;;;2.30;;
39322;SDS011;25036;53.638;10.134;2023-04-25T04:47:03;10.20;;;3.05;;
39322;SDS011;25036;53.638;10.134;2023-04-25T04:48:06;9.40;;;2.92;;
39322;SDS011;25036;53.638;10.134;2023-04-25T04:49:06;10.05;;;2.97;;
39322;SDS011;25036;53.638;10.134;2023-04-25T04:50:07;9.93;;;2.78;;
39322;SDS011;25036;53.638;10.134;2023-04-25T04:51:08;11.85;;;2.90;;
39322;SDS011;25036;53.638;10.134;2023-04-25T04:52:08;10.23;;;2.80;;
39322;SDS011;25036;53.638;10.134;2023-04-25T04:53:08;8.17;;;2.43;;
39322;SDS011;25036;53.638;10.134;2023-04-25T04:54:09;9.95;;;2.92;;
39322;SDS011;25036;53.638;10.134;2023-04-25T04:55:09;8.02;;;2.83;;
39322;SDS011;25036;53.638;10.134;2023-04-25T04:56:09;11.60;;;3.05;;
39322;SDS011;25036;53.638;10.134;2023-04-25T04:57:09;9.90;;;2.90;;
39322;SDS011;25036;53.638;10.134;2023-04-25T04:58:10;8.45;;;3.17;;
39322;SDS011;25036;53.638;10.134;2023-04-25T04:59:10;6.27;;;2.60;;
39322;SDS011;25036;53.638;10.134;2023-04-25T05:00:10;8.35;;;3.03;;
39322;SDS011;25036;53.638;10.134;2023-04-25T05:01:11;14.02;;;2.95;;
39322;SDS011;25036;53.638;10.134;2023-04-25T05:02:11;8.05;;;2.83;;
39322;SDS011;25036;53.638;10.134;2023-04-25T05:03:12;11.13;;;2.87;;
39322;SDS011;25036;53.638;10.134;2023-04-25T05:04:12;8.90;;;3.00;;
39322;SDS011;25036;53.638;10.134;2023-04-25T05:05:12;9.13;;;2.50;;
39322;SDS011;25036;53.638;10.134;2023-04-25T05:06:12;8.87;;;2.60;;
39322;SDS011;25036;53.638;10.134;2023-04-25T05:07:12;10.17;;;3.17;;
39322;SDS011;25036;53.638;10.134;2023-04-25T05:08:12;8.90;;;3.20;;
39322;SDS011;25036;53.638;10.134;2023-04-25T05:09:13;8.80;;;2.55;;
39322;SDS011;25036;53.638;10.134;2023-04-25T05:10:13;10.90;;;2.83;;
39322;SDS011;25036;53.638;10.134;2023-04-25T05:11:13;9.87;;;3.10;;
39322;SDS011;25036;53.638;10.134;2023-04-25T05:12:13;8.60;;;2.40;;
39322;SDS011;25036;53.638;10.134;2023-04-25T05:13:13;10.10;;;2.50;;
39322;SDS011;25036;53.638;10.134;2023-04-25T05:14:13;10.00;;;2.50;;
39322;SDS011;25036;53.638;10.134;2023-04-25T05:15:14;8.13;;;2.90;;
39322;SDS011;25036;53.638;10.134;2023-04-25T05:16:14;10.98;;;2.60;;
39322;SDS011;25036;53.638;10.134;2023-04-25T05:17:14;10.00;;;2.90;;
39322;SDS011;25036;53.638;10.134;2023-04-25T05:18:14;11.30;;;3.10;;
39322;SDS011;25036;53.638;10.134;2023-04-25T05:19:14;8.07;;;2.47;;
39322;SDS011;25036;53.638;10.134;2023-04-25T05:20:15;10.05;;;2.92;;
39322;SDS011;25036;53.638;10.134;2023-04-25T05:21:15;9.50;;;3.03;;
39322;SDS011;25036;53.638;10.134;2023-04-25T05:22:15;13.10;;;2.87;;
39322;SDS011;25036;53.638;10.134;2023-04-25T05:23:16;10.85;;;3.08;;
39322;SDS011;25036;53.638;10.134;2023-04-25T05:24:16;9.57;;;3.08;;
39322;SDS011;25036;53.638;10.134;2023-04-25T05:25:16;7.83;;;2.07;;
39322;SDS011;25036;53.638;10.134;2023-04-25T05:26:16;14.77;;;3.17;;
39322;SDS011;25036;53.638;10.134;2023-04-25T05:27:17;8.00;;;2.27;;
39322;SDS011;25036;53.638;10.134;2023-04-25T05:28:17;7.43;;;2.67;;
39322;SDS011;25036;53.638;10.134;2023-04-25T05:29:17;9.07;;;2.63;;
39322;SDS011;25036;53.638;10.134;2023-04-25T05:30:17;7.97;;;2.53;;
39322;SDS011;25036;53.638;10.134;2023-04-25T05:31:18;6.77;;;1.77;;
39322;SDS011;25036;53.638;10.134;2023-04-25T05:32:18;7.60;;;2.27;;
39322;SDS011;25036;53.638;10.134;2023-04-25T05:33:18;9.37;;;2.60;;
39322;SDS011;25036;53.638;10.134;2023-04-25T05:34:18;6.67;;;2.13;;
39322;SDS011;25036;53.638;10.134;2023-04-25T05:35:18;5.85;;;2.03;;
39322;SDS011;25036;53.638;10.134;2023-04-25T05:36:19;9.93;;;2.50;;
39322;SDS011;25036;53.638;10.134;2023-04-25T05:37:19;8.88;;;2.22;;
39322;SDS011;25036;53.638;10.134;2023-04-25T05:38:19;8.93;;;2.60;;
39322;SDS011;25036;53.638;10.134;2023-04-25T05:39:19;7.73;;;2.43;;
39322;SDS011;25036;53.638;10.134;2023-04-25T05:40:20;8.63;;;2.55;;
39322;SDS011;25036;53.638;10.134;2023-04-25T05:41:20;9.40;;;3.00;;
39322;SDS011;25036;53.638;10.134;2023-04-25T05:42:20;7.75;;;2.10;;
39322;SDS011;25036;53.638;10.134;2023-04-25T05:43:21;8.27;;;2.20;;
39322;SDS011;25036;53.638;10.134;2023-04-25T05:44:21;9.05;;;2.22;;
39322;SDS011;25036;53.638;10.134;2023-04-25T05:45:21;6.20;;;2.07;;
39322;SDS011;25036;53.638;10.134;2023-04-25T05:46:21;7.43;;;1.80;;
39322;SDS011;25036;53.638;10.134;2023-04-25T05:47:21;7.63;;;2.10;;
39322;SDS011;25036;53.638;10.134;2023-04-25T05:48:21;11.10;;;2.50;;
39322;SDS011;25036;53.638;10.134;2023-04-25T05:49:22;8.47;;;2.13;;
39322;SDS011;25036;53.638;10.134;2023-04-25T05:50:22;7.57;;;2.27;;
39322;SDS011;25036;53.638;10.134;2023-04-25T05:51:22;9.80;;;2.03;;
39322;SDS011;25036;53.638;10.134;2023-04-25T05:52:22;7.38;;;1.73;;
39322;SDS011;25036;53.638;10.134;2023-04-25T05:53:22;11.65;;;2.30;;
39322;SDS011;25036;53.638;10.134;2023-04-25T05:54:22;5.75;;;1.73;;
39322;SDS011;25036;53.638;10.134;2023-04-25T05:55:23;8.77;;;2.50;;
39322;SDS011;25036;53.638;10.134;2023-04-25T05:56:23;7.23;;;2.20;;